createdAt,value
2019-06-10T00:01:08.791Z,99919.91
2019-06-10T00:03:36.436Z,99913.02
2019-06-10T00:06:04.113Z,99910.34
2019-06-10T00:08:31.945Z,99906.48
2019-06-10T00:10:58.921Z,99903.62
2019-06-10T00:13:26.211Z,99904.98
2019-06-10T00:15:53.469Z,99912.13
2019-06-10T00:18:35.240Z,99908.98
2019-06-10T00:20:51.078Z,99908.92
2019-06-10T00:23:17.484Z,99908.86
2019-06-10T00:25:44.424Z,99903.41
2019-06-10T00:28:12.287Z,99906.18
2019-06-10T00:30:41.095Z,99904.02
2019-06-10T00:33:09.189Z,99900.41
2019-06-10T00:35:36.532Z,99894.27
2019-06-10T00:38:06.913Z,99889.44
2019-06-10T00:40:32.023Z,99886.92
2019-06-10T00:43:00.085Z,99886.80
2019-06-10T00:45:27.874Z,99880.74
2019-06-10T00:48:07.686Z,99884.09
2019-06-10T00:50:23.752Z,99883.95
2019-06-10T00:52:51.668Z,99879.43
2019-06-10T00:55:21.056Z,99885.52
2019-06-10T00:57:47.710Z,99872.45
2019-06-10T01:00:24.824Z,99873.03
2019-06-10T01:02:44.138Z,99876.23
2019-06-10T01:05:12.479Z,99866.34
2019-06-10T01:07:41.409Z,99866.78
2019-06-10T01:10:08.911Z,99861.69
2019-06-10T01:12:35.941Z,99858.77
2019-06-10T01:15:03.268Z,99853.06
2019-06-10T01:17:31.128Z,99854.22
2019-06-10T01:20:01.445Z,99845.58
2019-06-10T01:22:31.469Z,99840.05
2019-06-10T01:24:57.962Z,99838.89
2019-06-10T01:27:24.913Z,99827.80
2019-06-10T01:29:51.782Z,99821.60
2019-06-10T01:32:18.666Z,99824.91
2019-06-10T01:34:45.599Z,99821.61
2019-06-10T01:37:14.320Z,99818.52
2019-06-10T01:39:41.298Z,99826.63
2019-06-10T01:42:11.342Z,99820.31
2019-06-10T01:44:37.966Z,99821.51
2019-06-10T01:47:04.872Z,99827.52
2019-06-10T01:49:31.837Z,99815.68
2019-06-10T01:51:58.806Z,99812.15
2019-06-10T01:54:25.764Z,99809.81
2019-06-10T01:56:53.063Z,99810.87
2019-06-10T01:59:22.097Z,99812.17
2019-06-10T02:01:48.532Z,99806.09
2019-06-10T02:04:16.568Z,99802.76
2019-06-10T02:06:44.050Z,99804.94
2019-06-10T02:09:13.445Z,99795.81
2019-06-10T02:11:41.456Z,99798.43
2019-06-10T02:14:09.436Z,99792.63
2019-06-10T02:16:36.636Z,99787.58
2019-06-10T02:19:04.322Z,99787.98
2019-06-10T02:21:31.932Z,99785.04
2019-06-10T02:24:00.870Z,99777.33
2019-06-10T02:26:27.871Z,99777.33
2019-06-10T02:28:54.847Z,99772.65
2019-06-10T02:31:30.083Z,99779.59
2019-06-10T02:33:52.453Z,99767.27
2019-06-10T02:36:25.620Z,99763.18
2019-06-10T02:38:47.534Z,99752.33
2019-06-10T02:41:18.615Z,99754.06
2019-06-10T02:43:44.024Z,99748.87
2019-06-10T02:46:13.672Z,99742.45
2019-06-10T02:48:43.661Z,99751.77
2019-06-10T02:51:09.439Z,99745.73
2019-06-10T02:53:36.987Z,99747.48
2019-06-10T02:56:04.529Z,99752.31
2019-06-10T02:58:38.511Z,99755.91
2019-06-10T03:01:03.831Z,99753.67
2019-06-10T03:03:39.328Z,99752.45
2019-06-10T03:05:57.182Z,99749.89
2019-06-10T03:08:27.299Z,99742.81
2019-06-10T03:10:54.675Z,99736.94
2019-06-10T03:13:22.767Z,99729.84
2019-06-10T03:15:52.124Z,99719.98
2019-06-10T03:18:19.830Z,99720.23
2019-06-10T03:20:46.897Z,99718.25
2019-06-10T03:23:13.793Z,99724.16
2019-06-10T03:25:42.264Z,99723.91
2019-06-10T03:28:09.233Z,99724.27
2019-06-10T03:30:47.638Z,99718.77
2019-06-10T03:33:05.240Z,99723.75
2019-06-10T03:35:33.069Z,99721.17
2019-06-10T03:38:00.120Z,99714.11
2019-06-10T03:40:27.718Z,99714.36
2019-06-10T03:42:55.133Z,99710.35
2019-06-10T03:45:25.033Z,99712.97
2019-06-10T03:47:52.735Z,99721.52
2019-06-10T03:50:19.385Z,99719.17
2019-06-10T03:52:46.338Z,99710.64
2019-06-10T03:55:13.289Z,99715.69
2019-06-10T03:57:42.227Z,99713.36
2019-06-10T04:00:11.295Z,99708.55
2019-06-10T04:02:37.326Z,99713.21
2019-06-10T04:05:04.211Z,99716.59
2019-06-10T04:07:34.047Z,99718.36
2019-06-10T04:10:02.082Z,99715.88
2019-06-10T04:12:29.191Z,99708.08
2019-06-10T04:14:56.300Z,99706.42
2019-06-10T04:17:25.109Z,99709.04
2019-06-10T04:20:07.553Z,99703.13
2019-06-10T04:22:22.330Z,99689.56
2019-06-10T04:24:49.004Z,99686.34
2019-06-10T04:27:15.977Z,99695.28
2019-06-10T04:29:42.857Z,99696.81
2019-06-10T04:32:12.131Z,99691.80
2019-06-10T04:34:38.693Z,99688.53
2019-06-10T04:37:05.851Z,99681.53
2019-06-10T04:39:33.668Z,99686.56
2019-06-10T04:42:02.415Z,99680.06
2019-06-10T04:44:29.485Z,99687.81
2019-06-10T04:46:56.409Z,99681.25
2019-06-10T04:49:25.158Z,99685.09
2019-06-10T04:51:52.431Z,99683.11
2019-06-10T04:54:20.722Z,99682.53
2019-06-10T04:56:48.100Z,99676.55
2019-06-10T04:59:15.042Z,99685.09
2019-06-10T05:01:42.585Z,99692.59
2019-06-10T05:04:12.546Z,99683.91
2019-06-10T05:06:39.385Z,99688.72
2019-06-10T05:09:06.378Z,99687.31
2019-06-10T05:11:33.320Z,99691.30
2019-06-10T05:14:02.522Z,99696.42
2019-06-10T05:16:30.833Z,99692.69
2019-06-10T05:18:57.489Z,99695.74
2019-06-10T05:21:27.544Z,99690.06
2019-06-10T05:23:53.009Z,99696.95
2019-06-10T05:26:20.705Z,99696.13
2019-06-10T05:28:48.461Z,99699.84
2019-06-10T05:31:15.655Z,99701.99
2019-06-10T05:33:42.840Z,99698.56
2019-06-10T05:36:12.845Z,99696.75
2019-06-10T05:38:43.180Z,99689.98
2019-06-10T05:41:09.110Z,99684.43
2019-06-10T05:43:36.167Z,99677.73
2019-06-10T05:46:03.312Z,99680.84
2019-06-10T05:48:31.025Z,99687.55
2019-06-10T05:51:02.828Z,99683.82
2019-06-10T05:53:28.041Z,99676.48
2019-06-10T05:55:56.119Z,99679.09
2019-06-10T05:58:24.477Z,99676.66
2019-06-10T06:00:53.148Z,99674.53
2019-06-10T06:03:22.573Z,99669.39
2019-06-10T06:05:48.758Z,99661.50
2019-06-10T06:08:16.668Z,99656.23
2019-06-10T06:10:43.606Z,99659.70
2019-06-10T06:13:12.766Z,99667.23
2019-06-10T06:15:39.069Z,99659.22
2019-06-10T06:18:10.471Z,99658.73
2019-06-10T06:20:36.003Z,99655.36
2019-06-10T06:23:03.032Z,99653.05
2019-06-10T06:25:32.131Z,99658.83
2019-06-10T06:27:58.554Z,99658.72
2019-06-10T06:30:26.066Z,99661.41
2019-06-10T06:32:53.343Z,99658.92
2019-06-10T06:35:22.603Z,99665.28
2019-06-10T06:37:48.897Z,99660.05
2019-06-10T06:40:15.774Z,99658.27
2019-06-10T06:42:43.472Z,99651.91
2019-06-10T06:45:12.197Z,99650.78
2019-06-10T06:47:39.230Z,99656.27
2019-06-10T06:50:07.621Z,99661.37
2019-06-10T06:53:05.743Z,99660.13
2019-06-10T06:55:03.050Z,99656.89
2019-06-10T06:57:31.640Z,99664.36
2019-06-10T06:59:58.918Z,99655.16
2019-06-10T07:02:25.865Z,99651.16
2019-06-10T07:04:52.734Z,99650.20
2019-06-10T07:07:22.068Z,99648.64
2019-06-10T07:09:48.189Z,99647.58
2019-06-10T07:12:15.065Z,99647.50
2019-06-10T07:14:44.797Z,99647.03
2019-06-10T07:17:12.641Z,99642.82
2019-06-10T07:19:39.979Z,99642.06
2019-06-10T07:22:12.529Z,99649.81
2019-06-10T07:24:39.461Z,99645.24
2019-06-10T07:27:05.249Z,99641.73
2019-06-10T07:29:34.123Z,99642.14
2019-06-10T07:32:03.220Z,99637.63
2019-06-10T07:34:29.465Z,99634.66
2019-06-10T07:36:57.532Z,99638.34
2019-06-10T07:39:24.457Z,99644.91
2019-06-10T07:41:52.940Z,99646.78
2019-06-10T07:44:22.505Z,99645.66
2019-06-10T07:46:48.597Z,99641.55
2019-06-10T07:49:15.826Z,99636.81
2019-06-10T07:51:46.099Z,99636.39
2019-06-10T07:54:12.429Z,99637.72
2019-06-10T07:56:45.218Z,99637.73
2019-06-10T07:59:08.105Z,99638.91
2019-06-10T08:01:36.361Z,99644.34
2019-06-10T08:04:03.660Z,99648.75
2019-06-10T08:06:33.080Z,99642.17
2019-06-10T08:08:59.193Z,99639.69
2019-06-10T08:11:26.125Z,99641.11
2019-06-10T08:13:53.967Z,99632.09
2019-06-10T08:16:23.528Z,99631.02
2019-06-10T08:19:15.959Z,99633.59
2019-06-10T08:21:18.405Z,99638.47
2019-06-10T08:23:47.418Z,99623.86
2019-06-10T08:26:13.850Z,99622.92
2019-06-10T08:28:42.431Z,99625.24
2019-06-10T08:31:09.393Z,99618.61
2019-06-10T08:33:36.980Z,99619.45
2019-06-10T08:36:04.214Z,99620.03
2019-06-10T08:38:32.897Z,99626.05
2019-06-10T08:40:59.749Z,99620.12
2019-06-10T08:43:27.073Z,99613.80
2019-06-10T08:45:54.321Z,99604.09
2019-06-10T08:48:22.740Z,99607.47
2019-06-10T08:50:52.484Z,99614.63
2019-06-10T08:53:18.541Z,99608.98
2019-06-10T08:55:47.822Z,99610.30
2019-06-10T08:58:14.073Z,99615.02
2019-06-10T09:00:45.102Z,99617.87
2019-06-10T09:03:09.873Z,99625.78
2019-06-10T09:05:38.768Z,99627.77
2019-06-10T09:08:05.320Z,99624.48
2019-06-10T09:10:33.944Z,99627.31
2019-06-10T09:13:02.821Z,99627.48
2019-06-10T09:15:29.543Z,99635.89
2019-06-10T09:17:56.577Z,99637.75
2019-06-10T09:20:23.645Z,99641.42
2019-06-10T09:23:13.254Z,99646.86
2019-06-10T09:25:22.634Z,99641.77
2019-06-10T09:27:51.799Z,99643.55
2019-06-10T09:30:17.816Z,99647.12
2019-06-10T09:32:49.375Z,99650.09
2019-06-10T09:35:13.366Z,99658.52
2019-06-10T09:37:42.648Z,99653.72
2019-06-10T09:40:08.885Z,99652.10
2019-06-10T09:42:35.829Z,99651.39
2019-06-10T09:45:02.758Z,99650.80
2019-06-10T09:47:29.754Z,99652.61
2019-06-10T09:49:57.168Z,99658.70
2019-06-10T09:52:24.153Z,99659.86
2019-06-10T09:54:56.544Z,99675.03
2019-06-10T09:57:19.609Z,99680.19
2019-06-10T09:59:50.035Z,99685.16
2019-06-10T10:02:15.186Z,99686.20
2019-06-10T10:04:46.828Z,99693.81
2019-06-10T10:07:12.160Z,99693.27
2019-06-10T10:09:39.255Z,99687.06
2019-06-10T10:12:06.117Z,99663.80
2019-06-10T10:14:33.591Z,99650.30
2019-06-10T10:17:03.901Z,99627.03
2019-06-10T10:19:29.259Z,99611.72
2019-06-10T10:21:58.432Z,99616.09
2019-06-10T10:24:24.709Z,99637.41
2019-06-10T10:26:57.146Z,99638.50
2019-06-10T10:29:20.457Z,99635.40
2019-06-10T10:31:50.757Z,99631.08
2019-06-10T10:34:16.123Z,99626.47
2019-06-10T10:36:45.372Z,99626.19
2019-06-10T10:39:13.988Z,99613.75
2019-06-10T10:41:43.185Z,99615.89
2019-06-10T10:44:09.080Z,99619.25
2019-06-10T10:46:36.026Z,99619.14
2019-06-10T10:49:02.991Z,99620.45
2019-06-10T10:51:32.507Z,99626.28
2019-06-10T10:54:25.603Z,99625.53
2019-06-10T10:56:27.101Z,99627.87
2019-06-10T10:58:57.727Z,99637.24
2019-06-10T11:01:23.767Z,99635.59
2019-06-10T11:03:52.536Z,99634.50
2019-06-10T11:06:19.427Z,99628.16
2019-06-10T11:08:46.981Z,99631.12
2019-06-10T11:11:14.941Z,99635.91
2019-06-10T11:13:43.217Z,99631.92
2019-06-10T11:16:11.370Z,99623.91
2019-06-10T11:18:39.409Z,99615.41
2019-06-10T11:21:06.447Z,99616.79
2019-06-10T11:23:34.470Z,99610.78
2019-06-10T11:26:01.701Z,99600.38
2019-06-10T11:28:28.574Z,99593.23
2019-06-10T11:30:56.882Z,99576.11
2019-06-10T11:33:24.409Z,99578.50
2019-06-10T11:35:53.590Z,99570.15
2019-06-10T11:38:19.915Z,99563.38
2019-06-10T11:40:49.195Z,99559.42
2019-06-10T11:43:17.266Z,99553.51
2019-06-10T11:45:48.319Z,99546.66
2019-06-10T11:48:13.062Z,99546.80
2019-06-10T11:50:42.700Z,99554.76
2019-06-10T11:53:08.641Z,99559.42
2019-06-10T11:55:35.882Z,99545.98
2019-06-10T11:58:02.800Z,99540.62
2019-06-10T12:00:32.428Z,99538.30
2019-06-10T12:02:59.042Z,99532.47
2019-06-10T12:05:27.121Z,99527.06
2019-06-10T12:07:57.819Z,99524.33
2019-06-10T12:10:23.328Z,99520.17
2019-06-10T12:12:53.556Z,99517.49
2019-06-10T12:15:19.349Z,99516.66
2019-06-10T12:17:51.191Z,99513.57
2019-06-10T12:20:15.378Z,99512.94
2019-06-10T12:22:43.667Z,99505.20
2019-06-10T12:25:31.529Z,99503.84
2019-06-10T12:27:39.543Z,99497.73
2019-06-10T12:30:06.556Z,99496.29
2019-06-10T12:32:33.729Z,99495.75
2019-06-10T12:35:05.199Z,99496.73
2019-06-10T12:37:33.627Z,99502.47
2019-06-10T12:40:02.159Z,99507.84
2019-06-10T12:42:28.643Z,99497.70
2019-06-10T12:44:57.656Z,99488.48
2019-06-10T12:47:24.994Z,99483.03
2019-06-10T12:49:54.136Z,99475.58
2019-06-10T12:52:22.842Z,99478.25
2019-06-10T12:54:49.282Z,99468.92
2019-06-10T12:57:16.535Z,99468.74
2019-06-10T12:59:43.571Z,99466.34
2019-06-10T13:02:21.330Z,99465.05
2019-06-10T13:04:39.467Z,99463.02
2019-06-10T13:07:08.529Z,99465.98
2019-06-10T13:09:35.025Z,99468.73
2019-06-10T13:12:02.114Z,99468.58
2019-06-10T13:14:29.206Z,99469.41
2019-06-10T13:16:56.108Z,99467.84
2019-06-10T13:19:23.230Z,99469.94
2019-06-10T13:21:50.292Z,99475.58
2019-06-10T13:24:17.378Z,99471.16
2019-06-10T13:26:44.634Z,99476.59
2019-06-10T13:29:17.297Z,99477.05
2019-06-10T13:31:43.268Z,99470.25
2019-06-10T13:34:11.389Z,99469.59
2019-06-10T13:36:38.240Z,99469.14
2019-06-10T13:39:08.118Z,99464.92
2019-06-10T13:41:33.806Z,99456.06
2019-06-10T13:44:02.031Z,99442.41
2019-06-10T13:46:29.102Z,99442.16
2019-06-10T13:48:55.984Z,99440.75
2019-06-10T13:51:23.494Z,99431.16
2019-06-10T13:53:53.584Z,99421.37
2019-06-10T13:56:39.774Z,99416.57
2019-06-10T13:58:47.645Z,99421.21
2019-06-10T14:01:21.472Z,99426.28
2019-06-10T14:03:44.135Z,99423.95
2019-06-10T14:06:32.043Z,99424.14
2019-06-10T14:08:43.103Z,99422.84
2019-06-10T14:11:09.379Z,99416.39
2019-06-10T14:13:36.849Z,99416.97
2019-06-10T14:16:03.811Z,99420.17
2019-06-10T14:18:32.631Z,99415.84
2019-06-10T14:20:59.379Z,99412.23
2019-06-10T14:23:26.906Z,99412.42
2019-06-10T14:25:54.093Z,99411.23
2019-06-10T14:28:38.043Z,99409.39
2019-06-10T14:30:49.781Z,99405.05
2019-06-10T14:33:16.821Z,99408.30
2019-06-10T14:35:43.771Z,99403.77
2019-06-10T14:38:13.930Z,99405.43
2019-06-10T14:40:39.486Z,99407.55
2019-06-10T14:43:06.409Z,99408.48
2019-06-10T14:45:35.003Z,99402.94
2019-06-10T14:48:02.847Z,99404.23
2019-06-10T14:50:32.430Z,99395.84
2019-06-10T14:53:02.203Z,99393.36
2019-06-10T14:55:28.944Z,99384.30
2019-06-10T14:57:56.122Z,99381.54
2019-06-10T15:00:23.724Z,99373.25
2019-06-10T15:02:53.419Z,99374.73
2019-06-10T15:05:19.653Z,99363.11
2019-06-10T15:07:46.634Z,99365.86
2019-06-10T15:10:16.021Z,99364.84
2019-06-10T15:12:42.611Z,99369.19
2019-06-10T15:15:10.619Z,99358.13
2019-06-10T15:17:37.521Z,99357.67
2019-06-10T15:20:04.533Z,99345.76
2019-06-10T15:22:33.005Z,99347.89
2019-06-10T15:25:03.037Z,99347.95
2019-06-10T15:27:33.260Z,99340.95
2019-06-10T15:29:58.244Z,99333.11
2019-06-10T15:32:33.696Z,99336.08
2019-06-10T15:34:53.823Z,99328.23
2019-06-10T15:37:23.880Z,99325.84
2019-06-10T15:39:49.709Z,99322.33
2019-06-10T15:42:17.728Z,99321.23
2019-06-10T15:44:52.350Z,99318.00
2019-06-10T15:47:16.087Z,99319.74
2019-06-10T15:49:42.237Z,99319.58
2019-06-10T15:52:10.361Z,99317.91
2019-06-10T15:54:38.010Z,99311.35
2019-06-10T15:57:04.982Z,99307.77
2019-06-10T15:59:31.936Z,99307.41
2019-06-10T16:01:58.817Z,99295.60
2019-06-10T16:04:29.531Z,99298.98
2019-06-10T16:06:54.669Z,99302.20
2019-06-10T16:09:22.484Z,99296.15
2019-06-10T16:11:49.599Z,99284.66
2019-06-10T16:14:16.746Z,99281.92
2019-06-10T16:16:44.915Z,99273.31
2019-06-10T16:19:13.336Z,99267.66
2019-06-10T16:21:42.860Z,99263.59
2019-06-10T16:24:09.467Z,99262.98
2019-06-10T16:26:36.422Z,99271.13
2019-06-10T16:29:03.381Z,99276.23
2019-06-10T16:31:30.681Z,99275.09
2019-06-10T16:33:58.083Z,99270.52
2019-06-10T16:36:27.524Z,99275.09
2019-06-10T16:38:53.956Z,99278.06
2019-06-10T16:41:24.138Z,99275.55
2019-06-10T16:43:52.128Z,99270.33
2019-06-10T16:46:18.373Z,99265.72
2019-06-10T16:48:45.663Z,99263.87
2019-06-10T16:51:13.374Z,99257.13
2019-06-10T16:53:42.475Z,99253.17
2019-06-10T16:56:09.195Z,99261.59
2019-06-10T16:58:36.073Z,99256.23
2019-06-10T17:01:03.882Z,99251.50
2019-06-10T17:03:33.680Z,99250.31
2019-06-10T17:05:59.704Z,99259.87
2019-06-10T17:08:28.414Z,99262.55
2019-06-10T17:10:55.496Z,99260.07
2019-06-10T17:13:24.007Z,99256.60
2019-06-10T17:15:51.025Z,99259.82
2019-06-10T17:18:18.487Z,99269.57
2019-06-10T17:20:45.771Z,99272.61
2019-06-10T17:23:12.743Z,99272.43
2019-06-10T17:25:39.712Z,99275.95
2019-06-10T17:28:18.064Z,99276.20
2019-06-10T17:30:35.656Z,99275.47
2019-06-10T17:33:02.658Z,99286.98
2019-06-10T17:35:32.965Z,99291.06
2019-06-10T17:37:58.205Z,99279.44
2019-06-10T17:40:26.448Z,99269.84
2019-06-10T17:42:53.777Z,99266.07
2019-06-10T17:45:25.526Z,99274.34
2019-06-10T17:47:49.671Z,99266.73
2019-06-10T17:50:16.641Z,99257.05
2019-06-10T17:52:43.973Z,99255.15
2019-06-10T17:55:12.581Z,99251.59
2019-06-10T17:57:40.039Z,99255.54
2019-06-10T18:00:11.440Z,99259.16
2019-06-10T18:02:39.295Z,99270.17
2019-06-10T18:05:05.772Z,99274.53
2019-06-10T18:07:34.478Z,99269.56
2019-06-10T18:10:02.735Z,99264.92
2019-06-10T18:12:30.011Z,99269.20
2019-06-10T18:14:57.037Z,99269.74
2019-06-10T18:17:25.339Z,99272.35
2019-06-10T18:19:53.253Z,99269.04
2019-06-10T18:22:22.758Z,99264.22
2019-06-10T18:24:49.314Z,99256.33
2019-06-10T18:27:16.545Z,99259.30
2019-06-10T18:29:43.437Z,99268.14
2019-06-10T18:32:12.443Z,99284.37
2019-06-10T18:34:39.318Z,99288.53
2019-06-10T18:37:06.718Z,99292.89
2019-06-10T18:39:33.949Z,99288.63
2019-06-10T18:42:03.174Z,99282.20
2019-06-10T18:44:29.728Z,99282.30
2019-06-10T18:46:57.681Z,99270.40
2019-06-10T18:49:24.655Z,98956.34
2019-06-10T18:51:53.205Z,99260.08
2019-06-10T18:54:22.546Z,99243.75
2019-06-10T18:56:49.129Z,99234.92
2019-06-10T18:59:20.882Z,99227.11
2019-06-10T19:01:45.728Z,99232.82
2019-06-10T19:04:13.092Z,99235.20
2019-06-10T19:06:40.241Z,99228.38
2019-06-10T19:09:07.131Z,99214.38
2019-06-10T19:11:35.657Z,99218.50
2019-06-10T19:14:03.351Z,99214.72
2019-06-10T19:16:32.626Z,99213.97
2019-06-10T19:18:59.417Z,99222.02
2019-06-10T19:21:26.637Z,99220.37
2019-06-10T19:23:53.618Z,99216.56
2019-06-10T19:26:22.140Z,99207.38
2019-06-10T19:28:49.288Z,99202.41
2019-06-10T19:31:16.248Z,99206.63
2019-06-10T19:33:45.257Z,99225.23
2019-06-10T19:36:12.682Z,99238.43
2019-06-10T19:38:40.593Z,99226.91
2019-06-10T19:41:08.536Z,99218.27
2019-06-10T19:43:36.539Z,99212.19
2019-06-10T19:46:06.327Z,99189.89
2019-06-10T19:48:37.300Z,99178.27
2019-06-10T19:51:03.101Z,99168.61
2019-06-10T19:53:32.597Z,99165.31
2019-06-10T19:55:58.792Z,99159.12
2019-06-10T19:58:25.797Z,99161.16
2019-06-10T20:00:54.489Z,99178.18
2019-06-10T20:03:22.295Z,99181.44
2019-06-10T20:05:52.507Z,99168.34
2019-06-10T20:08:18.123Z,99173.59
2019-06-10T20:10:45.035Z,99180.87
2019-06-10T20:13:12.110Z,99173.69
2019-06-10T20:15:39.487Z,99183.34
2019-06-10T20:18:06.574Z,99200.09
2019-06-10T20:20:33.591Z,99227.65
2019-06-10T20:23:03.169Z,99248.09
2019-06-10T20:25:29.406Z,99287.33
2019-06-10T20:27:56.749Z,99299.66
2019-06-10T20:30:28.706Z,99286.92
2019-06-10T20:32:56.150Z,99304.04
2019-06-10T20:35:23.232Z,99297.70
2019-06-10T20:37:50.425Z,99298.52
2019-06-10T20:40:17.446Z,99283.78
2019-06-10T20:42:44.473Z,99279.67
2019-06-10T20:45:13.171Z,99275.38
2019-06-10T20:47:43.071Z,99280.75
2019-06-10T20:50:08.810Z,99257.53
2019-06-10T20:52:35.673Z,99238.50
2019-06-10T20:55:03.230Z,99229.63
2019-06-10T20:57:30.363Z,99201.89
2019-06-10T20:59:57.489Z,99191.05
2019-06-10T21:02:24.421Z,99166.92
2019-06-10T21:04:53.230Z,99155.91
2019-06-10T21:07:19.968Z,99183.06
2019-06-10T21:09:47.494Z,99287.48
2019-06-10T21:12:15.758Z,99303.80
2019-06-10T21:14:45.391Z,99286.94
2019-06-10T21:17:12.185Z,99297.92
2019-06-10T21:19:41.082Z,99286.28
2019-06-10T21:22:09.358Z,99325.70
2019-06-10T21:24:40.387Z,99325.77
2019-06-10T21:27:07.358Z,99289.26
2019-06-10T21:29:34.245Z,99239.00
2019-06-10T21:32:03.586Z,99291.34
2019-06-10T21:34:29.707Z,99321.53
2019-06-10T21:36:57.094Z,99352.30
2019-06-10T21:39:24.018Z,99337.63
2019-06-10T21:41:54.183Z,99290.19
2019-06-10T21:44:19.524Z,99297.44
2019-06-10T21:46:47.609Z,99314.53
2019-06-10T21:49:15.009Z,99319.20
2019-06-10T21:51:45.421Z,99328.36
2019-06-10T21:54:12.043Z,99353.35
2019-06-10T21:56:39.105Z,99342.58
2019-06-10T21:59:05.977Z,99325.22
2019-06-10T22:01:32.845Z,99330.20
2019-06-10T22:04:02.008Z,99306.41
2019-06-10T22:06:28.398Z,99271.66
2019-06-10T22:08:56.556Z,99256.36
2019-06-10T22:11:23.782Z,99282.80
2019-06-10T22:13:52.839Z,99303.98
2019-06-10T22:16:19.220Z,99292.41
2019-06-10T22:18:46.560Z,99293.94
2019-06-10T22:21:14.725Z,99318.64
2019-06-10T22:23:42.350Z,99345.53
2019-06-10T22:26:09.769Z,99368.70
2019-06-10T22:28:36.640Z,99351.94
2019-06-10T22:31:18.028Z,99345.12
2019-06-10T22:33:32.072Z,99366.05
2019-06-10T22:35:58.956Z,99354.19
2019-06-10T22:38:25.956Z,99332.34
2019-06-10T22:40:54.077Z,99323.60
2019-06-10T22:43:23.594Z,99337.67
2019-06-10T22:45:52.537Z,99367.48
2019-06-10T22:48:18.643Z,99358.98
2019-06-10T22:50:46.887Z,99341.61
2019-06-10T22:53:14.871Z,99319.39
2019-06-10T22:55:43.300Z,99314.03
2019-06-10T22:58:10.453Z,99289.98
2019-06-10T23:00:37.343Z,99252.08
2019-06-10T23:03:04.346Z,99215.05
2019-06-10T23:05:33.242Z,99212.19
2019-06-10T23:08:02.291Z,99244.53
2019-06-10T23:10:28.405Z,99217.97
2019-06-10T23:12:56.676Z,99205.66
2019-06-10T23:15:23.868Z,99228.10
2019-06-10T23:17:51.610Z,99239.59
2019-06-10T23:20:19.426Z,99230.36
2019-06-10T23:22:46.366Z,99224.13
2019-06-10T23:25:13.249Z,99225.33
2019-06-10T23:27:43.744Z,99245.30
2019-06-10T23:30:11.752Z,99258.86
2019-06-10T23:32:37.364Z,99246.56
2019-06-10T23:35:05.305Z,99233.34
2019-06-10T23:37:32.393Z,99252.23
2019-06-10T23:40:02.538Z,99276.61
2019-06-10T23:42:28.208Z,99275.40
2019-06-10T23:44:55.205Z,99260.08
2019-06-10T23:47:22.152Z,99249.75
2019-06-10T23:49:49.056Z,99233.66
2019-06-10T23:52:15.939Z,99227.67
2019-06-10T23:54:42.819Z,99230.13
2019-06-10T23:57:09.764Z,99224.86
2019-06-10T23:59:36.738Z,99224.28
